Time;durP1;ratioP1;P1;durP2;ratioP2;P2;SDS_P1;SDS_P2;PMS_P1;PMS_P2;Temp;Humidity;BMP_temperature;BMP_pressure;BME280_temperature;BME280_humidity;BME280_pressure;Samples;Min_cycle;Max_cycle;Signal;HPM_P1;HPM_P2
2022/12/09 00:01:05;;;;;;;10.73;6.20;;;-0.10;99.90;;;;;;5094944;28;20208;-65
2022/12/09 00:03:34;;;;;;;8.97;5.60;;;-0.10;99.90;;;;;;5101419;28;20229;-63
2022/12/09 00:06:05;;;;;;;7.67;5.73;;;-0.10;99.90;;;;;;5108221;28;20204;-63
2022/12/09 00:08:32;;;;;;;9.20;6.23;;;-0.10;99.90;;;;;;5104828;28;20215;-64
2022/12/09 00:10:59;;;;;;;10.60;6.20;;;-0.10;99.90;;;;;;5106850;28;20244;-64
2022/12/09 00:13:26;;;;;;;7.93;5.43;;;0.00;99.90;;;;;;5106862;28;20578;-65
2022/12/09 00:15:52;;;;;;;9.00;6.17;;;-0.30;99.90;;;;;;5107211;28;20208;-63
2022/12/09 00:18:19;;;;;;;9.77;6.20;;;-0.10;99.90;;;;;;5107668;28;20215;-65
2022/12/09 00:20:47;;;;;;;9.13;5.57;;;-0.10;99.90;;;;;;5105963;28;20216;-65
2022/12/09 00:23:14;;;;;;;10.83;6.10;;;-0.20;99.90;;;;;;5097343;28;20232;-64
2022/12/09 00:25:40;;;;;;;9.23;5.90;;;-0.20;99.90;;;;;;5092845;28;20613;-64
2022/12/09 00:28:07;;;;;;;7.90;5.23;;;-0.20;99.90;;;;;;5093072;28;20213;-65
2022/12/09 00:30:34;;;;;;;7.67;5.30;;;-0.20;99.90;;;;;;5092833;28;20204;-64
2022/12/09 00:33:00;;;;;;;8.70;5.33;;;-0.20;99.90;;;;;;5092918;28;20726;-63
2022/12/09 00:35:27;;;;;;;7.50;5.23;;;-0.20;99.90;;;;;;5092594;28;20207;-64
2022/12/09 00:37:55;;;;;;;8.13;5.57;;;-0.30;99.90;;;;;;5096762;28;20204;-64
2022/12/09 00:40:22;;;;;;;9.00;5.63;;;-0.20;99.90;;;;;;5092668;28;20208;-66
2022/12/09 00:42:49;;;;;;;7.30;5.60;;;-0.20;99.90;;;;;;5093044;28;20232;-65
2022/12/09 00:45:16;;;;;;;7.87;5.47;;;-0.30;99.90;;;;;;5092459;28;20603;-64
2022/12/09 00:47:42;;;;;;;8.53;5.57;;;-0.20;99.90;;;;;;5093608;28;20200;-64
2022/12/09 00:50:09;;;;;;;7.93;5.80;;;-0.20;99.90;;;;;;5093604;28;20208;-64
2022/12/09 00:52:36;;;;;;;9.93;6.73;;;-0.10;99.90;;;;;;5093057;28;20255;-64
2022/12/09 00:55:05;;;;;;;10.23;6.03;;;-0.10;99.90;;;;;;5092329;28;20208;-64
2022/12/09 00:57:31;;;;;;;8.10;5.97;;;-0.20;99.90;;;;;;5092674;28;20231;-66
2022/12/09 00:59:58;;;;;;;9.33;6.33;;;-0.10;99.90;;;;;;5093218;28;20578;-61
2022/12/09 01:02:25;;;;;;;11.53;6.60;;;-0.20;99.90;;;;;;5093183;28;20231;-61
2022/12/09 01:04:52;;;;;;;8.60;6.30;;;-0.20;99.90;;;;;;5093433;28;20215;-61
2022/12/09 01:07:18;;;;;;;7.27;5.83;;;-0.20;99.90;;;;;;5093307;28;20239;-62
2022/12/09 01:09:45;;;;;;;8.60;6.30;;;-0.20;99.90;;;;;;5092868;28;20204;-63
2022/12/09 01:12:13;;;;;;;8.90;6.17;;;-0.20;99.90;;;;;;5092500;28;20232;-62
2022/12/09 01:14:40;;;;;;;10.50;6.87;;;-0.30;99.90;;;;;;5092283;28;20215;-61
2022/12/09 01:17:07;;;;;;;12.00;6.27;;;-0.30;99.90;;;;;;5092535;28;20231;-62
2022/12/09 01:19:33;;;;;;;9.60;5.87;;;-0.30;99.90;;;;;;5092503;28;20208;-62
2022/12/09 01:22:00;;;;;;;8.13;5.63;;;-0.30;99.90;;;;;;5092263;28;20204;-62
2022/12/09 01:24:27;;;;;;;9.50;6.20;;;-0.30;99.90;;;;;;5091998;28;20200;-64
2022/12/09 01:26:54;;;;;;;10.17;5.50;;;-0.40;99.90;;;;;;5092583;28;20494;-62
2022/12/09 01:29:22;;;;;;;8.30;5.63;;;-0.40;99.90;;;;;;5092491;28;20208;-61
2022/12/09 01:31:49;;;;;;;7.50;5.37;;;-0.50;99.90;;;;;;5092454;28;20204;-63
2022/12/09 01:34:15;;;;;;;11.20;6.20;;;-0.60;99.90;;;;;;5093352;28;20559;-61
2022/12/09 01:36:42;;;;;;;9.37;5.30;;;-0.60;99.90;;;;;;5093198;28;20220;-62
2022/12/09 01:39:10;;;;;;;8.43;5.80;;;-0.60;99.90;;;;;;5092001;28;20576;-61
2022/12/09 01:41:37;;;;;;;8.63;5.53;;;-0.60;99.90;;;;;;5092191;28;20205;-61
2022/12/09 01:44:13;;;;;;;9.30;6.20;;;-0.60;99.90;;;;;;5091589;28;20227;-61
2022/12/09 01:46:41;;;;;;;8.97;5.83;;;-0.60;99.90;;;;;;5092625;28;20204;-61
2022/12/09 01:49:11;;;;;;;8.83;5.83;;;-0.50;99.90;;;;;;5092423;28;20247;-59
2022/12/09 01:51:39;;;;;;;9.77;5.93;;;-0.50;99.90;;;;;;5095979;28;20589;-60
2022/12/09 01:54:06;;;;;;;8.03;5.73;;;-0.40;99.90;;;;;;5095323;28;20807;-60
2022/12/09 01:56:35;;;;;;;7.67;5.63;;;-0.40;99.90;;;;;;5096218;28;20502;-60
2022/12/09 01:59:05;;;;;;;10.30;6.33;;;-0.50;99.90;;;;;;5096075;28;20208;-60
2022/12/09 02:01:32;;;;;;;10.57;6.13;;;-0.60;99.90;;;;;;5096126;28;20211;-60
2022/12/09 02:04:00;;;;;;;12.03;6.30;;;-0.70;99.90;;;;;;5095333;28;20610;-60
2022/12/09 02:06:27;;;;;;;7.93;5.90;;;-0.70;99.90;;;;;;5095716;28;20211;-60
2022/12/09 02:08:55;;;;;;;8.10;5.97;;;-0.70;99.90;;;;;;5096007;28;20597;-60
2022/12/09 02:11:31;;;;;;;8.53;5.80;;;-0.80;99.90;;;;;;5095818;28;20211;-61
2022/12/09 02:14:04;;;;;;;8.13;5.83;;;-0.80;99.90;;;;;;5095003;28;20228;-61
2022/12/09 02:16:41;;;;;;;9.60;6.40;;;-0.80;99.90;;;;;;5095411;28;20220;-62
2022/12/09 02:19:21;;;;;;;9.27;6.40;;;-0.90;99.90;;;;;;5095389;28;20265;-61
2022/12/09 02:21:53;;;;;;;8.70;6.30;;;-1.00;99.90;;;;;;5095659;28;20210;-60
2022/12/09 02:24:24;;;;;;;7.50;6.10;;;-1.00;99.90;;;;;;5095317;28;20205;-63
2022/12/09 02:26:57;;;;;;;8.87;6.33;;;-1.10;99.90;;;;;;5095319;28;20208;-60
2022/12/09 02:29:57;;;;;;;8.37;6.20;;;-1.10;99.90;;;;;;5095093;28;20226;-60
2022/12/09 02:32:50;;;;;;;8.30;5.97;;;-1.20;99.90;;;;;;5108685;28;20232;-61
2022/12/09 02:35:25;;;;;;;9.13;6.10;;;-1.20;99.90;;;;;;5109199;28;20212;-60
2022/12/09 02:37:57;;;;;;;9.00;6.50;;;-1.20;99.90;;;;;;5109916;28;20227;-61
2022/12/09 02:40:30;;;;;;;9.20;6.30;;;-1.10;99.90;;;;;;5101550;28;20212;-62
2022/12/09 02:42:59;;;;;;;10.33;6.30;;;-1.10;99.90;;;;;;5096541;28;20228;-60
2022/12/09 02:45:29;;;;;;;10.07;6.53;;;-1.00;99.90;;;;;;5095592;28;20690;-61
2022/12/09 02:48:00;;;;;;;8.03;6.20;;;-1.00;99.90;;;;;;5095795;28;20204;-61
2022/12/09 02:50:31;;;;;;;8.23;6.10;;;-1.00;99.90;;;;;;5096076;28;20205;-62
2022/12/09 02:53:03;;;;;;;8.57;5.93;;;-1.00;99.90;;;;;;5095913;28;20598;-60
2022/12/09 02:55:32;;;;;;;9.00;6.30;;;-1.10;99.90;;;;;;5095035;28;20204;-61
2022/12/09 02:58:01;;;;;;;9.63;6.33;;;-1.00;99.90;;;;;;5095717;28;20228;-60
2022/12/09 03:00:28;;;;;;;9.73;6.13;;;-1.00;99.90;;;;;;5096089;28;20246;-61
2022/12/09 03:02:57;;;;;;;9.63;5.93;;;-1.00;99.90;;;;;;5094998;28;20310;-60
2022/12/09 03:05:31;;;;;;;8.00;5.77;;;-1.00;99.90;;;;;;5095073;28;20204;-60
2022/12/09 03:08:08;;;;;;;12.43;5.63;;;-1.00;99.90;;;;;;5095225;28;20205;-60
2022/12/09 03:10:39;;;;;;;8.37;5.93;;;-1.00;99.90;;;;;;5095705;28;20208;-62
2022/12/09 03:13:12;;;;;;;9.17;5.90;;;-1.10;99.90;;;;;;5094780;28;20228;-61
2022/12/09 03:15:43;;;;;;;9.13;6.17;;;-1.10;99.90;;;;;;5094088;28;20207;-62
2022/12/09 03:18:13;;;;;;;13.13;6.83;;;-1.20;99.90;;;;;;5094647;28;20720;-61
2022/12/09 03:20:43;;;;;;;8.43;6.43;;;-1.20;99.90;;;;;;5094268;28;20209;-61
2022/12/09 03:23:14;;;;;;;8.97;6.07;;;-1.10;99.90;;;;;;5094255;28;20228;-61
2022/12/09 03:25:44;;;;;;;11.00;6.60;;;-1.20;99.90;;;;;;5093704;28;20686;-61
2022/12/09 03:28:17;;;;;;;9.77;6.53;;;-1.30;99.90;;;;;;5094239;28;20204;-61
2022/12/09 03:30:46;;;;;;;7.70;5.60;;;-1.30;99.90;;;;;;5094065;28;20208;-61
2022/12/09 03:33:15;;;;;;;6.87;5.47;;;-1.40;99.90;;;;;;5094229;28;20228;-61
2022/12/09 03:35:46;;;;;;;10.93;5.80;;;-1.40;99.90;;;;;;5093366;28;20687;-61
2022/12/09 03:38:16;;;;;;;7.33;5.87;;;-1.40;99.90;;;;;;5095628;28;20216;-61
2022/12/09 03:40:44;;;;;;;8.17;5.87;;;-1.40;99.90;;;;;;5094125;28;20680;-62
2022/12/09 03:43:14;;;;;;;8.07;6.07;;;-1.30;99.90;;;;;;5093549;28;20235;-61
2022/12/09 03:45:41;;;;;;;8.13;5.60;;;-1.30;99.90;;;;;;5092909;28;20588;-60
2022/12/09 03:48:08;;;;;;;9.77;6.20;;;-1.30;99.90;;;;;;5093764;28;20202;-60
2022/12/09 03:50:45;;;;;;;9.70;5.77;;;-1.30;99.90;;;;;;5093336;28;20204;-60
2022/12/09 03:53:17;;;;;;;7.93;6.00;;;-1.30;99.90;;;;;;5094132;28;20235;-60
2022/12/09 03:55:48;;;;;;;9.50;5.90;;;-1.20;99.90;;;;;;5093554;28;20208;-60
2022/12/09 03:58:16;;;;;;;7.97;5.73;;;-1.20;99.90;;;;;;5093954;28;20236;-60
2022/12/09 04:00:44;;;;;;;8.33;5.83;;;-1.30;99.90;;;;;;5093978;28;20204;-60
2022/12/09 04:03:13;;;;;;;8.50;5.70;;;-1.30;99.90;;;;;;5093450;28;20220;-60
2022/12/09 04:05:41;;;;;;;8.30;6.00;;;-1.30;99.90;;;;;;5093078;28;20231;-60
2022/12/09 04:08:09;;;;;;;10.40;6.80;;;-1.30;99.90;;;;;;5093767;28;20200;-61
2022/12/09 04:10:37;;;;;;;11.33;6.23;;;-1.30;99.90;;;;;;5093611;28;20208;-60
2022/12/09 04:13:04;;;;;;;9.00;5.97;;;-1.30;99.90;;;;;;5093734;28;20231;-60
2022/12/09 04:15:30;;;;;;;9.47;5.90;;;-1.30;99.90;;;;;;5093269;28;20204;-61
2022/12/09 04:17:57;;;;;;;10.60;5.80;;;-1.20;99.90;;;;;;5094522;28;20322;-61
2022/12/09 04:20:24;;;;;;;9.80;5.97;;;-1.20;99.90;;;;;;5094294;28;20204;-60
2022/12/09 04:22:50;;;;;;;9.40;6.90;;;-1.20;99.90;;;;;;5104256;28;20225;-62
2022/12/09 04:25:17;;;;;;;9.07;6.63;;;-1.10;99.90;;;;;;5106941;28;20215;-61
2022/12/09 04:27:45;;;;;;;9.33;6.57;;;-1.10;99.90;;;;;;5107909;28;20214;-61
2022/12/09 04:30:12;;;;;;;8.97;6.07;;;-1.10;99.90;;;;;;5105668;28;20211;-61
2022/12/09 04:32:39;;;;;;;9.37;6.70;;;-1.10;99.90;;;;;;5104906;28;20235;-61
2022/12/09 04:35:06;;;;;;;11.73;6.60;;;-1.10;99.90;;;;;;5107081;28;20279;-61
2022/12/09 04:37:33;;;;;;;9.30;6.57;;;-1.10;99.90;;;;;;5102630;28;20227;-61
2022/12/09 04:40:00;;;;;;;10.07;6.87;;;-1.10;99.90;;;;;;5093359;28;20204;-61
2022/12/09 04:42:28;;;;;;;10.50;7.37;;;-1.10;99.90;;;;;;5093391;28;20228;-62
2022/12/09 04:44:56;;;;;;;8.77;6.50;;;-1.10;99.90;;;;;;5093024;28;20235;-61
2022/12/09 04:47:23;;;;;;;10.23;6.40;;;-1.20;99.90;;;;;;5093522;28;20207;-61
2022/12/09 04:49:49;;;;;;;9.43;6.23;;;-1.20;99.90;;;;;;5093222;28;20199;-62
2022/12/09 04:52:17;;;;;;;11.23;6.17;;;-1.20;99.90;;;;;;5093224;28;20228;-61
2022/12/09 04:54:43;;;;;;;11.40;6.53;;;-1.20;99.90;;;;;;5092250;28;20203;-63
2022/12/09 04:57:10;;;;;;;11.97;6.73;;;-1.30;99.90;;;;;;5093355;28;20220;-60
2022/12/09 04:59:37;;;;;;;9.20;6.40;;;-1.40;99.90;;;;;;5093212;28;20204;-62
2022/12/09 05:02:05;;;;;;;8.57;6.13;;;-1.40;99.90;;;;;;5093759;28;20207;-61
2022/12/09 05:04:32;;;;;;;8.90;6.47;;;-1.40;99.90;;;;;;5093288;28;20209;-61
2022/12/09 05:06:59;;;;;;;10.30;6.93;;;-1.40;99.90;;;;;;5093331;28;20207;-61
2022/12/09 05:09:25;;;;;;;9.53;6.77;;;-1.40;99.90;;;;;;5092969;28;20672;-61
2022/12/09 05:11:52;;;;;;;10.30;6.80;;;-1.40;99.90;;;;;;5092856;28;20204;-62
2022/12/09 05:14:19;;;;;;;8.47;6.43;;;-1.30;99.90;;;;;;5092428;28;20205;-61
2022/12/09 05:16:46;;;;;;;9.63;6.70;;;-1.20;99.90;;;;;;5092842;28;20215;-62
2022/12/09 05:19:14;;;;;;;8.13;6.20;;;-1.20;99.90;;;;;;5093151;28;20215;-61
2022/12/09 05:21:42;;;;;;;14.73;7.13;;;-1.20;99.90;;;;;;5093625;28;20208;-61
2022/12/09 05:24:09;;;;;;;11.50;6.57;;;-1.10;99.90;;;;;;5092259;28;20646;-62
2022/12/09 05:26:36;;;;;;;9.90;6.33;;;-1.10;99.90;;;;;;5095910;28;20204;-62
2022/12/09 05:29:04;;;;;;;9.83;6.27;;;-1.00;99.90;;;;;;5097078;28;20683;-61
2022/12/09 05:31:31;;;;;;;11.67;6.93;;;-0.90;99.90;;;;;;5099276;28;20205;-62
2022/12/09 05:33:58;;;;;;;11.23;6.30;;;-0.90;99.90;;;;;;5097413;28;20719;-61
2022/12/09 05:36:27;;;;;;;9.77;6.40;;;-1.00;99.90;;;;;;5095784;28;20736;-61
2022/12/09 05:38:54;;;;;;;9.00;6.83;;;-0.90;99.90;;;;;;5096639;28;20220;-62
2022/12/09 05:41:21;;;;;;;9.80;5.90;;;-0.90;99.90;;;;;;5096645;28;20208;-61
2022/12/09 05:43:49;;;;;;;12.27;6.90;;;-0.90;99.90;;;;;;5096552;28;20224;-61
2022/12/09 05:46:16;;;;;;;9.73;6.50;;;-0.90;99.90;;;;;;5096169;28;20204;-61
2022/12/09 05:48:43;;;;;;;9.40;6.73;;;-0.80;99.90;;;;;;5096743;28;20213;-62
2022/12/09 05:51:14;;;;;;;9.13;6.67;;;-0.80;99.90;;;;;;5098775;28;20212;-62
2022/12/09 05:53:42;;;;;;;9.50;6.60;;;-0.70;99.90;;;;;;5108840;28;20232;-61
2022/12/09 05:56:08;;;;;;;12.60;7.37;;;-0.70;99.90;;;;;;5096115;28;20208;-61
2022/12/09 05:58:35;;;;;;;10.07;7.17;;;-0.60;99.90;;;;;;5106995;28;20224;-62
2022/12/09 06:01:06;;;;;;;10.93;7.50;;;-0.60;99.90;;;;;;5107322;28;20231;-62
2022/12/09 06:03:33;;;;;;;16.17;10.13;;;-0.60;99.90;;;;;;5105925;28;20232;-63
2022/12/09 06:06:05;;;;;;;15.73;10.00;;;-0.70;99.90;;;;;;5103167;28;20216;-61
2022/12/09 06:08:31;;;;;;;16.17;8.80;;;-0.60;99.90;;;;;;5096892;28;20691;-61
2022/12/09 06:10:59;;;;;;;11.87;7.60;;;-0.60;99.90;;;;;;5097460;28;20212;-62
2022/12/09 06:13:26;;;;;;;10.63;6.97;;;-0.60;99.90;;;;;;5097154;28;20726;-62
2022/12/09 06:15:53;;;;;;;10.10;6.80;;;-0.60;99.90;;;;;;5095670;28;20204;-62
2022/12/09 06:18:20;;;;;;;9.17;7.00;;;-0.60;99.90;;;;;;5095850;28;20224;-62
2022/12/09 06:20:47;;;;;;;14.80;8.33;;;-0.60;99.90;;;;;;5095418;28;20632;-62
2022/12/09 06:23:14;;;;;;;11.70;7.33;;;-0.40;99.90;;;;;;5095473;28;20729;-62
2022/12/09 06:25:44;;;;;;;11.57;7.47;;;-0.40;99.90;;;;;;5095103;28;20205;-61
2022/12/09 06:28:12;;;;;;;11.30;7.00;;;-0.30;99.90;;;;;;5095439;28;20231;-62
2022/12/09 06:30:39;;;;;;;11.10;7.27;;;-0.30;99.90;;;;;;5095252;28;20216;-61
2022/12/09 06:33:06;;;;;;;12.13;7.40;;;-0.40;99.90;;;;;;5095461;28;20232;-62
2022/12/09 06:35:33;;;;;;;12.27;7.80;;;-0.30;99.90;;;;;;5095759;28;20205;-61
2022/12/09 06:38:00;;;;;;;12.80;7.77;;;-0.30;99.90;;;;;;5094091;28;20227;-61
2022/12/09 06:40:27;;;;;;;10.83;7.23;;;-0.20;99.90;;;;;;5095463;28;20688;-61
2022/12/09 06:42:54;;;;;;;11.20;8.17;;;-0.20;99.90;;;;;;5095414;28;20228;-62
2022/12/09 06:45:22;;;;;;;13.53;8.00;;;-0.20;99.90;;;;;;5095187;28;20204;-62
2022/12/09 06:47:49;;;;;;;10.97;8.17;;;-0.10;99.90;;;;;;5094455;28;20702;-62
2022/12/09 06:50:16;;;;;;;14.03;8.20;;;-0.10;99.90;;;;;;5095898;28;20214;-62
2022/12/09 06:52:42;;;;;;;13.03;8.30;;;0.00;99.90;;;;;;5095012;28;20228;-62
2022/12/09 06:55:10;;;;;;;11.60;8.07;;;0.00;99.90;;;;;;5094819;28;20208;-60
2022/12/09 06:57:37;;;;;;;13.60;9.10;;;0.10;99.90;;;;;;5095280;28;20224;-61
2022/12/09 07:00:05;;;;;;;18.83;11.43;;;0.20;99.90;;;;;;5095100;28;20582;-60
2022/12/09 07:02:34;;;;;;;18.37;10.43;;;0.20;99.90;;;;;;5095094;28;20591;-61
2022/12/09 07:05:01;;;;;;;15.20;9.30;;;0.30;99.90;;;;;;5094758;28;20204;-61
2022/12/09 07:07:28;;;;;;;14.37;9.60;;;0.30;99.90;;;;;;5095260;28;20208;-61
2022/12/09 07:09:55;;;;;;;13.73;8.97;;;0.50;99.90;;;;;;5095032;28;20211;-62
2022/12/09 07:12:21;;;;;;;12.53;8.17;;;0.50;99.90;;;;;;5094602;28;20251;-62
2022/12/09 07:14:48;;;;;;;12.80;7.23;;;0.60;99.90;;;;;;5094383;28;20573;-61
2022/12/09 07:17:16;;;;;;;14.50;7.40;;;0.70;99.90;;;;;;5094786;28;20208;-65
2022/12/09 07:19:44;;;;;;;15.50;9.70;;;0.80;99.90;;;;;;5094766;28;20224;-61
2022/12/09 07:22:11;;;;;;;10.13;7.20;;;0.90;99.90;;;;;;5094245;28;20695;-61
2022/12/09 07:24:39;;;;;;;14.80;9.13;;;0.90;99.90;;;;;;5093790;28;20702;-62
2022/12/09 07:27:06;;;;;;;14.13;8.07;;;1.00;99.90;;;;;;5094272;28;20664;-61
2022/12/09 07:29:33;;;;;;;14.70;6.90;;;1.10;99.90;;;;;;5094749;28;20207;-61
2022/12/09 07:32:00;;;;;;;13.53;8.93;;;1.20;99.90;;;;;;5096917;28;20211;-61
2022/12/09 07:34:27;;;;;;;12.03;7.60;;;1.10;99.90;;;;;;5095465;28;20243;-62
2022/12/09 07:36:55;;;;;;;10.63;7.43;;;1.20;99.90;;;;;;5095241;28;20212;-64
2022/12/09 07:39:22;;;;;;;12.10;7.00;;;1.20;99.90;;;;;;5094266;28;20235;-62
2022/12/09 07:41:52;;;;;;;11.83;7.33;;;1.30;99.90;;;;;;5094762;28;20691;-64
2022/12/09 07:44:19;;;;;;;21.53;12.33;;;1.40;99.90;;;;;;5094991;28;20208;-63
2022/12/09 07:46:47;;;;;;;21.33;12.33;;;1.60;99.90;;;;;;5094429;28;20211;-63
2022/12/09 07:49:14;;;;;;;11.60;8.73;;;1.70;99.90;;;;;;5094458;28;20208;-62
2022/12/09 07:51:41;;;;;;;8.73;6.67;;;1.90;99.90;;;;;;5094199;28;20204;-62
2022/12/09 07:54:12;;;;;;;16.37;8.87;;;2.00;99.90;;;;;;5094477;28;20231;-67
2022/12/09 07:56:38;;;;;;;10.50;7.80;;;2.20;99.90;;;;;;5094516;28;20209;-62
2022/12/09 07:59:06;;;;;;;14.27;7.80;;;2.40;99.90;;;;;;5105857;28;20262;-61
2022/12/09 08:01:33;;;;;;;11.27;6.67;;;2.50;99.90;;;;;;5111744;28;20267;-61
2022/12/09 08:04:01;;;;;;;14.57;7.60;;;2.70;99.90;;;;;;5110950;28;20231;-61
2022/12/09 08:06:29;;;;;;;10.17;6.97;;;2.90;99.90;;;;;;5110992;28;20208;-60
2022/12/09 08:08:58;;;;;;;14.33;7.67;;;3.10;99.90;;;;;;5098945;28;20204;-61
2022/12/09 08:11:28;;;;;;;11.90;7.50;;;3.30;99.90;;;;;;5094711;28;20664;-61
2022/12/09 08:13:56;;;;;;;14.67;7.60;;;3.50;99.90;;;;;;5094461;28;20232;-61
2022/12/09 08:16:24;;;;;;;11.20;7.33;;;3.60;99.90;;;;;;5094043;28;20204;-61
2022/12/09 08:18:51;;;;;;;11.00;7.33;;;3.70;99.90;;;;;;5094491;28;20224;-61
2022/12/09 08:21:19;;;;;;;12.23;7.17;;;3.70;99.90;;;;;;5093954;28;20208;-61
2022/12/09 08:23:46;;;;;;;12.83;7.97;;;3.80;99.90;;;;;;5094364;28;20273;-61
2022/12/09 08:26:15;;;;;;;14.47;7.67;;;3.80;99.90;;;;;;5093048;28;20676;-61
2022/12/09 08:28:43;;;;;;;11.70;7.60;;;3.80;99.90;;;;;;5093845;28;20203;-62
2022/12/09 08:31:11;;;;;;;11.67;7.20;;;3.90;99.90;;;;;;5094556;28;20204;-61
2022/12/09 08:33:39;;;;;;;15.67;7.80;;;4.00;99.90;;;;;;5093597;28;20247;-61
2022/12/09 08:36:11;;;;;;;10.20;7.27;;;4.10;99.90;;;;;;5093697;28;20208;-61
2022/12/09 08:38:37;;;;;;;14.50;7.50;;;4.30;99.90;;;;;;5095140;28;20220;-61
2022/12/09 08:41:09;;;;;;;11.90;7.40;;;4.40;99.90;;;;;;5094818;28;20204;-61
2022/12/09 08:43:37;;;;;;;22.17;15.40;;;4.50;99.90;;;;;;5102302;28;20220;-61
2022/12/09 08:46:05;;;;;;;14.30;7.77;;;4.70;99.90;;;;;;5101420;28;20683;-62
2022/12/09 08:48:35;;;;;;;11.57;7.53;;;4.70;99.90;;;;;;5102288;28;20204;-61
2022/12/09 08:51:01;;;;;;;11.77;7.67;;;4.60;99.90;;;;;;5101311;28;20200;-62
2022/12/09 08:53:28;;;;;;;13.73;8.47;;;4.60;99.90;;;;;;5093776;28;20224;-62
2022/12/09 08:55:55;;;;;;;14.50;8.30;;;4.60;99.90;;;;;;5093071;28;20211;-61
2022/12/09 08:58:21;;;;;;;11.87;8.20;;;4.60;99.90;;;;;;5094375;28;20226;-61
2022/12/09 09:00:48;;;;;;;12.63;8.63;;;4.70;99.90;;;;;;5096381;28;20207;-61
2022/12/09 09:03:16;;;;;;;14.30;8.53;;;4.80;99.90;;;;;;5098427;28;20536;-61
2022/12/09 09:05:43;;;;;;;15.97;8.30;;;4.60;99.90;;;;;;5097469;28;20208;-62
2022/12/09 09:08:10;;;;;;;11.60;8.23;;;4.60;99.90;;;;;;5103701;28;20667;-62
2022/12/09 09:10:37;;;;;;;15.17;9.63;;;4.60;99.90;;;;;;5098032;28;20242;-62
2022/12/09 09:13:03;;;;;;;16.37;9.87;;;4.20;99.90;;;;;;5097785;28;20239;-61
2022/12/09 09:15:30;;;;;;;13.70;9.17;;;4.00;99.90;;;;;;5096915;28;20212;-60
2022/12/09 09:17:57;;;;;;;12.67;9.60;;;3.90;99.90;;;;;;5098687;28;20649;-60
2022/12/09 09:20:25;;;;;;;13.73;9.80;;;4.00;99.90;;;;;;5097121;28;20208;-61
2022/12/09 09:22:51;;;;;;;16.63;10.50;;;4.10;99.90;;;;;;5096951;28;20224;-62
2022/12/09 09:25:18;;;;;;;13.60;9.90;;;4.30;99.90;;;;;;5096471;28;20206;-62
2022/12/09 09:27:45;;;;;;;16.17;10.00;;;4.30;99.90;;;;;;5102354;28;20219;-62
2022/12/09 09:30:12;;;;;;;15.10;10.63;;;4.40;99.90;;;;;;5104855;28;20201;-62
2022/12/09 09:32:38;;;;;;;13.67;9.13;;;4.50;99.90;;;;;;5104820;28;20608;-62
2022/12/09 09:35:05;;;;;;;12.90;9.63;;;4.70;99.90;;;;;;5103520;28;20215;-62
2022/12/09 09:37:33;;;;;;;14.73;10.23;;;4.80;99.90;;;;;;5100361;28;20200;-63
2022/12/09 09:40:00;;;;;;;12.80;9.13;;;4.90;99.90;;;;;;5096880;28;20227;-62
2022/12/09 09:42:34;;;;;;;16.40;10.10;;;5.10;99.90;;;;;;5096671;28;20220;-62
2022/12/09 09:45:17;;;;;;;14.80;9.40;;;5.20;99.90;;;;;;5095792;28;20208;-61
2022/12/09 09:47:48;;;;;;;13.73;9.90;;;5.30;99.90;;;;;;5096671;28;20227;-61
2022/12/09 09:50:26;;;;;;;16.83;9.97;;;5.40;99.90;;;;;;5097025;28;20203;-61
2022/12/09 09:52:55;;;;;;;13.67;9.57;;;5.20;99.90;;;;;;5096966;28;20274;-62
2022/12/09 09:55:31;;;;;;;13.90;10.70;;;5.10;99.90;;;;;;5095727;28;20577;-62
2022/12/09 09:58:04;;;;;;;17.00;10.53;;;5.30;99.90;;;;;;5096191;28;20203;-62
2022/12/09 10:00:36;;;;;;;14.63;10.53;;;5.40;99.90;;;;;;5096162;28;20235;-62
2022/12/09 10:03:09;;;;;;;12.63;10.23;;;5.20;99.90;;;;;;5096935;28;20235;-62
2022/12/09 10:05:43;;;;;;;12.93;9.73;;;5.10;99.90;;;;;;5095745;28;20201;-61
2022/12/09 10:08:26;;;;;;;13.70;10.03;;;4.90;99.90;;;;;;5096707;28;20227;-61
2022/12/09 10:11:02;;;;;;;15.23;10.00;;;4.50;99.90;;;;;;5097463;28;20679;-62
2022/12/09 10:13:40;;;;;;;12.50;9.87;;;4.10;99.90;;;;;;5100323;28;20315;-61
2022/12/09 10:16:14;;;;;;;16.87;10.90;;;4.00;99.90;;;;;;5101584;28;20206;-62
2022/12/09 10:18:48;;;;;;;15.03;11.53;;;3.70;99.90;;;;;;5102822;28;20224;-61
2022/12/09 10:21:17;;;;;;;13.93;10.53;;;3.80;99.90;;;;;;5105128;28;20204;-62
2022/12/09 10:23:45;;;;;;;13.37;10.37;;;4.20;99.90;;;;;;5108524;28;20224;-62
2022/12/09 10:26:18;;;;;;;14.33;9.77;;;4.60;99.90;;;;;;5107038;28;20219;-63
2022/12/09 10:28:49;;;;;;;14.67;10.50;;;4.90;99.90;;;;;;5109698;28;20201;-61
2022/12/09 10:31:16;;;;;;;13.50;9.60;;;5.20;99.90;;;;;;5108585;28;20224;-62
2022/12/09 10:33:42;;;;;;;15.43;10.90;;;5.10;99.90;;;;;;5100388;28;20236;-62
2022/12/09 10:36:22;;;;;;;14.57;9.60;;;5.30;99.90;;;;;;5100269;28;20212;-62
2022/12/09 10:38:50;;;;;;;12.40;9.33;;;5.70;99.90;;;;;;5097072;28;20220;-62
2022/12/09 10:44:21;;;;;;;20.07;13.33;;;6.40;99.90;;;;;;5093950;28;20216;-61
2022/12/09 10:46:48;;;;;;;13.90;9.70;;;6.60;99.90;;;;;;5094187;28;20211;-61
2022/12/09 10:49:20;;;;;;;11.53;9.40;;;6.60;99.90;;;;;;5094703;28;20690;-62
2022/12/09 10:51:49;;;;;;;11.77;9.80;;;6.60;99.90;;;;;;5095069;28;20215;-62
2022/12/09 10:54:26;;;;;;;12.90;10.00;;;6.50;99.90;;;;;;5094834;28;20269;-64
2022/12/09 10:57:22;;;;;;;14.57;10.57;;;6.60;99.90;;;;;;5094181;28;20219;-63
2022/12/09 10:59:58;;;;;;;14.20;10.53;;;6.80;99.90;;;;;;5094689;28;20220;-63
2022/12/09 11:02:26;;;;;;;13.97;11.00;;;7.00;99.90;;;;;;5095633;28;20220;-63
2022/12/09 11:04:53;;;;;;;13.40;10.47;;;6.90;99.90;;;;;;5094888;28;20211;-63
2022/12/09 11:07:23;;;;;;;14.00;10.97;;;6.90;99.90;;;;;;5094798;28;20211;-64
2022/12/09 11:10:04;;;;;;;15.13;11.10;;;6.90;99.90;;;;;;5095324;28;20208;-63
2022/12/09 11:12:33;;;;;;;13.73;11.43;;;6.90;99.90;;;;;;5094571;28;20239;-63
2022/12/09 11:15:02;;;;;;;14.67;10.40;;;6.80;99.90;;;;;;5094566;28;20204;-63
2022/12/09 11:17:31;;;;;;;14.27;10.07;;;6.80;99.90;;;;;;5095782;28;20207;-63
2022/12/09 11:20:15;;;;;;;14.60;10.27;;;6.70;99.90;;;;;;5094611;28;20231;-64
2022/12/09 11:22:44;;;;;;;15.33;10.97;;;6.70;99.90;;;;;;5093488;28;20224;-65
2022/12/09 11:25:28;;;;;;;14.20;10.67;;;6.60;99.90;;;;;;5093247;28;20211;-62
2022/12/09 11:27:57;;;;;;;14.63;10.53;;;6.60;99.90;;;;;;5092147;28;20208;-63
2022/12/09 11:30:26;;;;;;;15.00;11.00;;;6.60;99.90;;;;;;5094164;28;20296;-63
2022/12/09 11:33:02;;;;;;;15.40;11.07;;;6.50;99.90;;;;;;5093896;28;20735;-65
2022/12/09 11:35:32;;;;;;;13.80;10.87;;;6.40;99.90;;;;;;5093637;28;20208;-64
2022/12/09 11:38:02;;;;;;;14.37;11.00;;;6.20;99.90;;;;;;5094414;28;20200;-62
2022/12/09 11:40:32;;;;;;;15.27;11.57;;;6.20;99.90;;;;;;5094803;28;20224;-62
2022/12/09 11:42:59;;;;;;;14.87;11.00;;;6.20;99.90;;;;;;5094147;28;20606;-63
2022/12/09 11:45:29;;;;;;;14.67;11.10;;;6.30;99.90;;;;;;5093783;28;20204;-64
2022/12/09 11:48:05;;;;;;;13.00;10.33;;;6.40;99.90;;;;;;5094642;28;20227;-64
2022/12/09 11:50:33;;;;;;;13.33;10.40;;;6.50;99.90;;;;;;5094153;28;20215;-64
2022/12/09 11:53:17;;;;;;;12.87;10.07;;;6.60;99.90;;;;;;5094621;28;20251;-64
2022/12/09 11:55:48;;;;;;;13.97;10.80;;;6.70;99.90;;;;;;5097461;28;20631;-64
2022/12/09 11:58:20;;;;;;;14.10;10.77;;;6.70;99.90;;;;;;5103863;28;20214;-63
2022/12/09 12:00:51;;;;;;;15.27;10.60;;;6.80;99.90;;;;;;5101322;28;20291;-63
2022/12/09 12:03:23;;;;;;;14.03;10.37;;;6.80;99.90;;;;;;5098626;28;20708;-64
2022/12/09 12:05:51;;;;;;;13.93;10.73;;;6.80;99.90;;;;;;5093183;28;20648;-65
2022/12/09 12:08:25;;;;;;;13.80;11.00;;;6.70;99.90;;;;;;5094020;28;20214;-64
2022/12/09 12:10:57;;;;;;;15.07;10.70;;;6.70;99.90;;;;;;5094004;28;20201;-64
2022/12/09 12:13:28;;;;;;;14.70;10.40;;;6.70;99.90;;;;;;5093384;28;20254;-64
2022/12/09 12:16:04;;;;;;;13.33;9.47;;;6.60;99.90;;;;;;5092967;28;20208;-64
2022/12/09 12:18:35;;;;;;;14.67;10.47;;;6.60;99.90;;;;;;5094348;28;20413;-64
2022/12/09 12:21:18;;;;;;;15.53;11.00;;;6.50;99.90;;;;;;5093985;28;20224;-63
2022/12/09 12:24:06;;;;;;;16.00;11.10;;;6.20;99.90;;;;;;5094524;28;20227;-63
2022/12/09 12:26:40;;;;;;;15.57;11.53;;;6.00;99.90;;;;;;5095112;28;20207;-62
2022/12/09 12:29:37;;;;;;;17.03;11.43;;;5.90;99.90;;;;;;5094568;28;20204;-63
2022/12/09 12:32:15;;;;;;;17.30;12.23;;;5.70;99.90;;;;;;5094669;28;20251;-62
2022/12/09 12:34:56;;;;;;;16.77;12.07;;;5.60;99.90;;;;;;5094870;28;20626;-63
2022/12/09 12:37:37;;;;;;;15.33;11.67;;;5.60;99.90;;;;;;5094394;28;20207;-63
2022/12/09 12:40:13;;;;;;;15.93;12.43;;;5.50;99.90;;;;;;5094890;28;20243;-63
2022/12/09 12:48:32;;;;;;;17.70;11.90;;;5.60;99.90;;;;;;5095129;28;20249;-63
2022/12/09 12:51:08;;;;;;;17.37;12.57;;;5.60;99.90;;;;;;5094827;28;20196;-62
2022/12/09 12:53:42;;;;;;;18.23;12.90;;;5.40;99.90;;;;;;5095167;28;20246;-64
2022/12/09 12:56:15;;;;;;;15.90;11.97;;;5.20;99.90;;;;;;5095149;28;20192;-64
2022/12/09 12:58:56;;;;;;;17.67;12.63;;;5.20;99.90;;;;;;5094901;28;20246;-64
2022/12/09 13:01:29;;;;;;;17.67;12.43;;;5.20;99.90;;;;;;5103456;28;20224;-64
2022/12/09 13:04:06;;;;;;;15.27;11.43;;;5.20;99.90;;;;;;5099324;28;20232;-64